Time;durP1;ratioP1;P1;durP2;ratioP2;P2;SDS_P1;SDS_P2;PMS_P1;PMS_P2;Temp;Humidity;BMP_temperature;BMP_pressure;BME280_temperature;BME280_humidity;BME280_pressure;Samples;Min_cycle;Max_cycle;Signal;HPM_P1;HPM_P2
2023/09/23 00:02:26;;;;;;;2.65;0.80;;;19.30;99.90;;;;;;5030237;28;20228;-82
2023/09/23 00:04:57;;;;;;;1.77;0.65;;;19.30;99.90;;;;;;5029285;28;20608;-82
2023/09/23 00:07:28;;;;;;;2.75;0.52;;;19.20;99.90;;;;;;5030260;28;20197;-82
2023/09/23 00:09:59;;;;;;;1.60;0.80;;;19.20;99.90;;;;;;5024143;28;20244;-80
2023/09/23 00:12:33;;;;;;;2.42;0.65;;;19.10;99.90;;;;;;5030244;28;20232;-81
2023/09/23 00:15:05;;;;;;;2.10;0.60;;;19.00;99.90;;;;;;5028675;28;20664;-81
2023/09/23 00:17:37;;;;;;;3.20;0.80;;;19.00;99.90;;;;;;5030613;28;20208;-81
2023/09/23 00:20:14;;;;;;;2.80;0.70;;;19.00;99.90;;;;;;5033084;28;20712;-82
2023/09/23 00:22:46;;;;;;;2.08;0.90;;;18.90;99.90;;;;;;5054036;28;20639;-81
2023/09/23 00:25:18;;;;;;;3.35;0.80;;;18.80;99.90;;;;;;5017365;28;20237;-81
2023/09/23 00:27:53;;;;;;;2.08;0.70;;;18.80;99.90;;;;;;5014230;28;20742;-81
2023/09/23 00:30:26;;;;;;;3.58;0.52;;;18.70;99.90;;;;;;5031568;28;20188;-81
2023/09/23 00:32:57;;;;;;;2.40;0.82;;;18.70;99.90;;;;;;5032928;28;20603;-81
2023/09/23 00:35:28;;;;;;;4.13;0.77;;;18.70;99.90;;;;;;5032973;28;20571;-81
2023/09/23 00:37:59;;;;;;;1.02;0.45;;;18.70;99.90;;;;;;5039554;28;20733;-81
2023/09/23 00:40:38;;;;;;;1.98;0.63;;;18.70;99.90;;;;;;5025270;28;20235;-81
2023/09/23 00:43:13;;;;;;;2.28;0.60;;;18.80;99.90;;;;;;5033295;28;20730;-80
2023/09/23 00:45:49;;;;;;;1.17;0.40;;;18.90;99.90;;;;;;5033226;28;20575;-81
2023/09/23 00:48:21;;;;;;;0.98;0.50;;;18.80;99.90;;;;;;5031740;28;20567;-81
2023/09/23 00:50:52;;;;;;;1.83;0.50;;;18.90;99.90;;;;;;5032273;28;20215;-81
2023/09/23 00:53:24;;;;;;;1.45;0.40;;;18.90;99.90;;;;;;5031934;28;20239;-81
2023/09/23 00:55:55;;;;;;;2.35;0.60;;;19.10;99.90;;;;;;5033743;28;20215;-81
2023/09/23 00:58:28;;;;;;;0.77;0.40;;;19.40;99.90;;;;;;5032161;28;20208;-81
2023/09/23 01:00:59;;;;;;;0.95;0.38;;;19.70;99.90;;;;;;5013165;28;21095;-81
2023/09/23 01:03:30;;;;;;;2.25;0.50;;;20.00;99.90;;;;;;5016509;28;20201;-81
2023/09/23 01:06:08;;;;;;;1.75;0.60;;;20.10;99.90;;;;;;5032102;28;20197;-81
2023/09/23 01:08:41;;;;;;;1.25;0.40;;;20.20;99.90;;;;;;5026982;28;20622;-81
2023/09/23 01:11:12;;;;;;;1.58;0.50;;;20.20;99.90;;;;;;5026878;28;20201;-81
2023/09/23 01:13:46;;;;;;;0.95;0.30;;;20.20;99.90;;;;;;5042267;28;20197;-81
2023/09/23 01:16:17;;;;;;;1.48;0.32;;;20.20;99.90;;;;;;5013162;28;20280;-82
2023/09/23 01:18:49;;;;;;;2.40;0.55;;;20.20;99.90;;;;;;5029405;28;20198;-81
2023/09/23 01:21:21;;;;;;;1.23;0.50;;;20.30;99.90;;;;;;5031108;28;20221;-81
2023/09/23 01:23:53;;;;;;;0.98;0.50;;;20.20;99.90;;;;;;5032076;28;20197;-80
2023/09/23 01:26:24;;;;;;;1.35;0.50;;;20.30;99.90;;;;;;5032733;28;20617;-81
2023/09/23 01:28:55;;;;;;;2.63;0.40;;;20.40;99.90;;;;;;5029006;28;20204;-81
2023/09/23 01:31:29;;;;;;;1.65;0.60;;;20.40;99.90;;;;;;5012995;28;20206;-81
2023/09/23 01:33:59;;;;;;;1.08;0.52;;;20.60;99.90;;;;;;5021193;28;20201;-81
2023/09/23 01:36:31;;;;;;;1.02;0.30;;;20.70;99.90;;;;;;5031235;28;20193;-81
2023/09/23 01:39:04;;;;;;;5.50;0.85;;;20.80;99.90;;;;;;5032256;28;20194;-81
2023/09/23 01:41:36;;;;;;;4.18;0.70;;;20.60;99.90;;;;;;5032848;28;20236;-81
2023/09/23 01:44:07;;;;;;;1.02;0.30;;;20.60;99.90;;;;;;5024140;28;20578;-82
2023/09/23 01:46:39;;;;;;;4.60;0.60;;;20.50;99.90;;;;;;5029255;28;20197;-80
2023/09/23 01:49:09;;;;;;;2.53;0.60;;;20.40;99.90;;;;;;5028624;28;20221;-80
2023/09/23 01:51:41;;;;;;;2.97;0.70;;;20.30;99.90;;;;;;5032613;28;20703;-81
2023/09/23 01:54:16;;;;;;;0.73;0.40;;;20.30;99.90;;;;;;5027711;28;20576;-81
2023/09/23 01:56:47;;;;;;;2.10;0.52;;;20.20;99.90;;;;;;5030067;28;20186;-80
2023/09/23 01:59:18;;;;;;;1.83;0.47;;;20.00;99.90;;;;;;5031996;28;20212;-81
2023/09/23 02:01:49;;;;;;;1.70;0.52;;;20.00;99.90;;;;;;5032460;28;20589;-81
2023/09/23 02:04:19;;;;;;;1.73;0.47;;;20.00;99.90;;;;;;5038103;28;20199;-81
2023/09/23 02:06:51;;;;;;;0.77;0.40;;;19.90;99.90;;;;;;5029859;28;20202;-80
2023/09/23 02:09:25;;;;;;;1.48;0.40;;;20.00;99.90;;;;;;5020749;28;20616;-81
2023/09/23 02:11:56;;;;;;;0.88;0.30;;;20.10;99.90;;;;;;5030789;28;20572;-81
2023/09/23 02:14:26;;;;;;;2.90;0.70;;;20.00;99.90;;;;;;5023667;28;20280;-82
2023/09/23 02:16:57;;;;;;;0.52;0.40;;;20.00;99.90;;;;;;5029857;28;20208;-82
2023/09/23 02:19:28;;;;;;;1.75;0.50;;;19.90;99.90;;;;;;5025385;28;20205;-84
2023/09/23 02:22:05;;;;;;;1.70;0.45;;;20.00;99.90;;;;;;5053357;28;20192;-82
2023/09/23 02:24:40;;;;;;;0.73;0.32;;;20.10;99.90;;;;;;5027548;28;20758;-82
2023/09/23 02:27:10;;;;;;;1.65;0.40;;;20.10;99.90;;;;;;5028042;28;20189;-82
2023/09/23 02:29:42;;;;;;;0.90;0.30;;;20.00;99.90;;;;;;5027002;28;20197;-81
2023/09/23 02:32:12;;;;;;;1.70;0.35;;;20.00;99.90;;;;;;5023164;28;20206;-81
2023/09/23 02:34:45;;;;;;;1.45;0.50;;;20.00;99.90;;;;;;5013325;28;20213;-82
2023/09/23 02:37:18;;;;;;;0.65;0.30;;;20.10;99.90;;;;;;5025335;28;20196;-82
2023/09/23 02:39:51;;;;;;;1.63;0.40;;;20.20;99.90;;;;;;5031179;28;20201;-81
2023/09/23 02:42:22;;;;;;;1.13;0.30;;;20.10;99.90;;;;;;5030431;28;20193;-80
2023/09/23 02:44:52;;;;;;;0.55;0.30;;;20.30;99.90;;;;;;5032720;28;20208;-81
2023/09/23 02:47:23;;;;;;;2.97;0.50;;;20.50;99.90;;;;;;5031843;28;20574;-82
2023/09/23 02:49:54;;;;;;;2.00;0.40;;;21.00;99.90;;;;;;5030303;28;20189;-81
2023/09/23 02:52:25;;;;;;;1.65;0.40;;;21.50;99.90;;;;;;5033010;28;20608;-83
2023/09/23 02:54:58;;;;;;;7.75;0.88;;;22.00;99.90;;;;;;5049677;28;20211;-82
2023/09/23 02:57:30;;;;;;;2.25;0.52;;;22.40;99.90;;;;;;5050953;28;20207;-83
2023/09/23 03:00:12;;;;;;;1.35;0.50;;;22.30;99.20;;;;;;5052306;28;20888;-83
2023/09/23 03:02:45;;;;;;;1.73;0.40;;;22.10;99.90;;;;;;5051298;28;20201;-82
2023/09/23 03:05:18;;;;;;;2.35;0.63;;;21.80;99.30;;;;;;5031836;28;20225;-83
2023/09/23 03:07:50;;;;;;;1.50;0.60;;;21.60;98.80;;;;;;5016961;28;20219;-82
2023/09/23 03:10:31;;;;;;;2.03;0.90;;;21.30;99.00;;;;;;5021126;28;20331;-81
2023/09/23 03:13:05;;;;;;;0.50;0.40;;;21.30;99.50;;;;;;5030531;28;20308;-80
2023/09/23 03:15:44;;;;;;;1.23;0.47;;;21.20;99.80;;;;;;5027764;28;20707;-83
2023/09/23 03:18:17;;;;;;;2.20;0.50;;;21.10;99.90;;;;;;5018696;28;20853;-82
2023/09/23 03:20:49;;;;;;;0.50;0.30;;;21.20;99.90;;;;;;5030441;28;20260;-81
2023/09/23 03:23:20;;;;;;;2.63;0.60;;;21.40;99.70;;;;;;5030459;28;20221;-81
2023/09/23 03:25:55;;;;;;;2.60;0.40;;;21.80;99.60;;;;;;5030299;28;20233;-82
2023/09/23 03:28:26;;;;;;;2.15;0.40;;;22.20;99.00;;;;;;5031340;28;20215;-82
2023/09/23 03:31:03;;;;;;;5.05;0.40;;;22.40;97.10;;;;;;5030356;28;20196;-82
2023/09/23 03:33:33;;;;;;;2.08;0.45;;;22.50;97.00;;;;;;5030384;28;20205;-82
2023/09/23 03:36:05;;;;;;;1.70;0.30;;;22.70;96.40;;;;;;5030311;28;20193;-82
2023/09/23 03:38:36;;;;;;;1.38;0.47;;;22.80;96.40;;;;;;5030851;28;20240;-83
2023/09/23 03:41:11;;;;;;;0.55;0.30;;;23.00;94.40;;;;;;5029379;28;20229;-83
2023/09/23 03:43:42;;;;;;;1.85;0.28;;;22.80;94.20;;;;;;5027138;28;20200;-83
2023/09/23 03:46:17;;;;;;;2.08;0.47;;;22.70;93.90;;;;;;5026303;28;20202;-83
2023/09/23 03:48:48;;;;;;;1.42;0.47;;;22.80;94.10;;;;;;5022536;28;20200;-83
2023/09/23 03:51:19;;;;;;;2.85;0.35;;;22.90;93.60;;;;;;5015490;28;20611;-84
2023/09/23 03:53:51;;;;;;;1.52;0.40;;;22.60;93.90;;;;;;5029951;28;20242;-83
2023/09/23 03:56:26;;;;;;;1.35;0.40;;;22.40;93.60;;;;;;5032470;28;20189;-83
2023/09/23 03:58:57;;;;;;;1.05;0.40;;;22.40;93.40;;;;;;5033430;28;20239;-84
2023/09/23 04:01:34;;;;;;;2.58;0.70;;;22.20;94.10;;;;;;5021593;28;20316;-84
2023/09/23 04:04:06;;;;;;;1.58;0.40;;;22.20;94.20;;;;;;5025119;28;20212;-83
2023/09/23 04:06:37;;;;;;;0.80;0.35;;;22.20;93.90;;;;;;5027121;28;20244;-83
2023/09/23 04:09:11;;;;;;;1.85;0.50;;;22.00;94.30;;;;;;5034349;28;20216;-82
2023/09/23 04:11:52;;;;;;;1.20;0.47;;;22.00;94.80;;;;;;5014313;28;20221;-85
2023/09/23 04:14:26;;;;;;;0.77;0.47;;;22.10;94.30;;;;;;5023555;28;20300;-84
2023/09/23 04:16:58;;;;;;;1.50;0.55;;;22.00;93.70;;;;;;5030642;28;20190;-84
2023/09/23 04:19:29;;;;;;;1.58;0.47;;;21.90;93.80;;;;;;5031724;28;20284;-84
2023/09/23 04:22:00;;;;;;;1.33;0.38;;;21.80;93.70;;;;;;5028926;28;20319;-84
2023/09/23 04:24:34;;;;;;;1.77;0.30;;;21.70;93.80;;;;;;5029802;28;20236;-86
2023/09/23 04:27:11;;;;;;;4.38;0.60;;;21.70;94.40;;;;;;5034751;28;20192;-87
2023/09/23 04:29:41;;;;;;;1.08;0.40;;;21.50;95.50;;;;;;5034672;28;20213;-86
2023/09/23 04:32:12;;;;;;;1.45;0.50;;;21.60;98.10;;;;;;5033888;28;21017;-86
2023/09/23 04:34:43;;;;;;;1.38;0.50;;;21.60;96.90;;;;;;5034464;28;20208;-86
2023/09/23 04:37:14;;;;;;;2.75;0.40;;;21.60;95.50;;;;;;5037003;28;20204;-87
2023/09/23 04:39:45;;;;;;;0.57;0.32;;;21.50;95.40;;;;;;5033856;28;20369;-81
2023/09/23 04:42:22;;;;;;;18.60;1.17;;;21.50;96.10;;;;;;5014192;28;20599;-85
2023/09/23 04:44:52;;;;;;;9.40;0.70;;;21.50;95.00;;;;;;5026278;28;20232;-84
2023/09/23 04:47:23;;;;;;;1.38;0.50;;;21.60;94.90;;;;;;5034432;28;20289;-84
2023/09/23 04:49:55;;;;;;;3.05;0.60;;;21.40;94.70;;;;;;5034009;28;20569;-83
2023/09/23 04:52:27;;;;;;;2.28;0.60;;;21.50;95.30;;;;;;5034066;28;20201;-83
2023/09/23 04:54:58;;;;;;;5.43;0.60;;;21.50;94.30;;;;;;5032818;28;20208;-83
2023/09/23 04:57:31;;;;;;;2.15;0.50;;;21.40;94.70;;;;;;5033677;28;20205;-83
2023/09/23 05:00:03;;;;;;;2.20;0.40;;;21.40;95.60;;;;;;5033779;28;20703;-83
2023/09/23 05:02:34;;;;;;;1.85;0.40;;;21.50;94.80;;;;;;5033730;28;20225;-83
2023/09/23 05:05:05;;;;;;;1.80;0.50;;;21.70;94.30;;;;;;5032312;28;20319;-83
2023/09/23 05:07:37;;;;;;;1.58;0.40;;;21.80;94.90;;;;;;5033091;28;20197;-83
2023/09/23 05:10:08;;;;;;;3.22;0.40;;;21.80;94.30;;;;;;5043345;28;20200;-83
2023/09/23 05:12:44;;;;;;;2.95;0.60;;;21.80;93.50;;;;;;5053200;28;20264;-83
2023/09/23 05:15:15;;;;;;;1.05;0.40;;;21.70;93.00;;;;;;5053446;28;20197;-84
2023/09/23 05:17:45;;;;;;;2.58;0.30;;;21.50;93.80;;;;;;5040533;28;20189;-83
2023/09/23 05:20:25;;;;;;;0.80;0.30;;;21.50;94.00;;;;;;5031783;28;20208;-83
2023/09/23 05:23:02;;;;;;;6.47;0.90;;;21.30;93.90;;;;;;5033112;28;20672;-83
2023/09/23 05:25:35;;;;;;;2.80;0.75;;;21.40;97.10;;;;;;5032928;28;20664;-84
2023/09/23 05:28:10;;;;;;;0.60;0.35;;;21.00;99.90;;;;;;5018414;28;20644;-84
2023/09/23 05:30:41;;;;;;;3.20;0.40;;;20.60;99.90;;;;;;5035754;28;20206;-84
2023/09/23 05:33:12;;;;;;;1.88;0.50;;;20.10;99.90;;;;;;5035331;28;20201;-84
2023/09/23 05:35:43;;;;;;;2.30;0.40;;;19.90;99.90;;;;;;5033637;28;20193;-85
2023/09/23 05:38:14;;;;;;;3.17;0.30;;;19.80;99.90;;;;;;5034649;28;20195;-84
2023/09/23 05:40:44;;;;;;;2.00;0.80;;;19.70;99.90;;;;;;5033966;28;20221;-83
2023/09/23 05:43:18;;;;;;;1.05;0.40;;;19.70;99.90;;;;;;5034760;28;20193;-85
2023/09/23 05:45:49;;;;;;;1.42;0.40;;;19.60;99.90;;;;;;5035017;28;20197;-84
2023/09/23 05:48:20;;;;;;;1.23;0.50;;;19.60;99.90;;;;;;5034486;28;20197;-85
2023/09/23 05:50:51;;;;;;;1.73;0.55;;;19.90;99.90;;;;;;5034226;28;20248;-87
2023/09/23 05:53:22;;;;;;;1.42;0.40;;;20.00;99.90;;;;;;5023978;28;20201;-84
2023/09/23 05:55:53;;;;;;;0.75;0.45;;;20.20;99.90;;;;;;5016356;28;20202;-84
2023/09/23 05:58:25;;;;;;;2.28;0.60;;;20.40;99.90;;;;;;5015009;28;20198;-84
2023/09/23 06:00:56;;;;;;;1.05;0.50;;;20.60;99.90;;;;;;5039742;28;20570;-86
2023/09/23 06:03:29;;;;;;;3.00;0.50;;;20.60;99.90;;;;;;5046165;28;20196;-85
2023/09/23 06:06:00;;;;;;;1.27;0.40;;;20.90;99.90;;;;;;5037765;28;20240;-86
2023/09/23 06:08:31;;;;;;;1.67;0.50;;;21.00;99.90;;;;;;5035429;28;20215;-86
2023/09/23 06:11:05;;;;;;;2.67;0.50;;;21.30;99.90;;;;;;5034922;28;20256;-86
2023/09/23 06:13:41;;;;;;;1.65;0.40;;;21.30;99.90;;;;;;5025357;28;20660;-86
2023/09/23 06:16:12;;;;;;;1.20;0.35;;;21.30;99.90;;;;;;5018610;28;20280;-85
2023/09/23 06:18:43;;;;;;;1.33;0.50;;;21.20;98.70;;;;;;5049092;28;20201;-85
2023/09/23 06:21:14;;;;;;;1.20;0.50;;;21.20;98.20;;;;;;5038149;28;20235;-89
2023/09/23 06:23:45;;;;;;;1.02;0.38;;;21.40;98.60;;;;;;5026463;28;20568;-87
2023/09/23 06:26:16;;;;;;;0.95;0.40;;;21.80;98.60;;;;;;5024507;28;20193;-89
2023/09/23 06:28:48;;;;;;;1.88;0.75;;;22.10;96.90;;;;;;5035728;28;20204;-89
2023/09/23 06:31:19;;;;;;;0.95;0.30;;;22.50;97.00;;;;;;5034969;28;20205;-90
2023/09/23 06:33:50;;;;;;;3.80;0.55;;;22.50;97.00;;;;;;5035683;28;20201;-88
2023/09/23 06:36:21;;;;;;;1.70;0.40;;;22.40;96.90;;;;;;5035197;28;20205;-89
2023/09/23 06:38:53;;;;;;;1.50;0.30;;;22.40;95.70;;;;;;5036556;28;20219;-83
2023/09/23 06:41:23;;;;;;;0.93;0.40;;;22.00;97.30;;;;;;5038461;28;20252;-84
2023/09/23 06:43:56;;;;;;;1.67;0.45;;;22.00;98.00;;;;;;5040045;28;20192;-84
2023/09/23 06:46:27;;;;;;;4.57;0.40;;;22.10;98.10;;;;;;5036182;28;20202;-84
2023/09/23 06:48:58;;;;;;;2.17;0.38;;;22.40;97.80;;;;;;5035768;28;20193;-84
2023/09/23 06:51:31;;;;;;;1.10;0.40;;;22.50;96.60;;;;;;5035482;28;20209;-85
2023/09/23 06:54:03;;;;;;;1.92;0.55;;;22.50;97.00;;;;;;5034827;28;20204;-83
2023/09/23 06:56:34;;;;;;;2.22;1.10;;;22.40;96.10;;;;;;5033318;28;20571;-85
2023/09/23 06:59:07;;;;;;;1.20;0.80;;;22.10;97.10;;;;;;5031301;28;20660;-85
2023/09/23 07:01:38;;;;;;;2.13;0.40;;;21.60;98.50;;;;;;5030752;28;20279;-85
2023/09/23 07:04:10;;;;;;;1.38;0.50;;;21.30;98.60;;;;;;5031890;28;20201;-83
2023/09/23 07:06:41;;;;;;;2.20;0.70;;;20.90;99.70;;;;;;5031972;28;20198;-84
2023/09/23 07:09:13;;;;;;;0.82;0.50;;;20.60;99.90;;;;;;5036984;28;20203;-85
2023/09/23 07:11:43;;;;;;;3.05;0.80;;;20.40;99.90;;;;;;5017070;28;20275;-85
2023/09/23 07:14:16;;;;;;;1.05;0.55;;;20.40;99.90;;;;;;5030604;28;20629;-85
2023/09/23 07:16:47;;;;;;;1.67;0.50;;;20.10;99.90;;;;;;5030414;28;20660;-83
2023/09/23 07:19:18;;;;;;;1.88;0.60;;;20.10;99.90;;;;;;5022961;28;20194;-84
2023/09/23 07:21:48;;;;;;;1.38;0.40;;;20.00;99.90;;;;;;5021643;28;20431;-84
2023/09/23 07:24:19;;;;;;;2.63;0.50;;;19.80;99.90;;;;;;5031468;28;20276;-83
2023/09/23 07:26:50;;;;;;;1.35;0.43;;;19.70;99.90;;;;;;5030002;28;20668;-83
2023/09/23 07:29:22;;;;;;;1.27;0.35;;;19.70;99.90;;;;;;5026712;28;20193;-84
2023/09/23 07:31:53;;;;;;;0.80;0.30;;;19.50;99.90;;;;;;5031151;28;20201;-84
2023/09/23 07:34:24;;;;;;;0.80;0.43;;;19.50;99.90;;;;;;5029987;28;20197;-84
2023/09/23 07:36:55;;;;;;;1.17;0.40;;;19.40;99.90;;;;;;5014822;28;20214;-83
2023/09/23 07:39:25;;;;;;;2.25;0.45;;;19.30;99.90;;;;;;5019141;28;20213;-84
2023/09/23 07:41:56;;;;;;;0.88;0.50;;;19.20;99.90;;;;;;5030922;28;20216;-84
2023/09/23 07:44:29;;;;;;;0.77;0.40;;;19.20;99.90;;;;;;5021371;28;20205;-84
2023/09/23 07:47:00;;;;;;;1.95;0.40;;;19.20;99.90;;;;;;5028191;28;20202;-83
2023/09/23 07:49:31;;;;;;;0.77;0.35;;;19.10;99.90;;;;;;5030217;28;20201;-83
2023/09/23 07:52:02;;;;;;;2.95;0.55;;;19.00;99.90;;;;;;5030217;28;20766;-83
2023/09/23 07:54:32;;;;;;;1.92;0.40;;;18.90;99.90;;;;;;5026762;28;20277;-83
2023/09/23 07:57:03;;;;;;;1.25;0.40;;;18.90;99.90;;;;;;5021959;28;20193;-85
2023/09/23 07:59:36;;;;;;;0.70;0.50;;;18.80;99.90;;;;;;5018759;28;20291;-81
2023/09/23 08:02:06;;;;;;;2.13;0.63;;;18.70;99.90;;;;;;5030166;28;20240;-85
2023/09/23 08:04:37;;;;;;;1.08;0.60;;;18.80;99.90;;;;;;5011346;28;20204;-84
2023/09/23 08:07:08;;;;;;;3.55;1.10;;;18.70;99.90;;;;;;5008208;28;20217;-85
2023/09/23 08:09:39;;;;;;;0.75;0.43;;;18.70;99.90;;;;;;5011896;28;20358;-84
2023/09/23 08:12:10;;;;;;;1.05;0.43;;;18.70;99.90;;;;;;5006819;28;20233;-83
2023/09/23 08:14:42;;;;;;;0.65;0.50;;;18.60;99.90;;;;;;5011262;28;20202;-83
2023/09/23 08:17:14;;;;;;;1.00;0.40;;;18.60;99.90;;;;;;5019685;28;20567;-83
2023/09/23 08:19:45;;;;;;;2.10;0.65;;;18.60;99.90;;;;;;5030678;28;20198;-83
2023/09/23 08:22:15;;;;;;;2.45;1.00;;;18.60;99.90;;;;;;5029966;28;20223;-84
2023/09/23 08:24:46;;;;;;;2.53;0.80;;;18.50;99.90;;;;;;5030858;28;20197;-85
2023/09/23 08:27:17;;;;;;;0.98;0.65;;;18.50;99.90;;;;;;5027500;28;20193;-87
2023/09/23 08:29:50;;;;;;;1.25;0.60;;;18.50;99.90;;;;;;5032094;28;20672;-86
2023/09/23 08:32:21;;;;;;;2.47;0.60;;;18.50;99.90;;;;;;5030739;28;20202;-87
2023/09/23 08:34:52;;;;;;;1.25;0.65;;;18.50;99.90;;;;;;5020947;28;20221;-88
2023/09/23 08:37:22;;;;;;;1.83;0.60;;;18.50;99.90;;;;;;5028351;28;20595;-86
2023/09/23 08:39:53;;;;;;;0.80;0.60;;;18.50;99.90;;;;;;5032057;28;20204;-85
2023/09/23 08:42:24;;;;;;;0.88;0.50;;;18.50;99.90;;;;;;5023921;28;20206;-85
2023/09/23 08:44:57;;;;;;;1.05;0.63;;;18.40;99.90;;;;;;5032975;28;20209;-85
2023/09/23 08:47:28;;;;;;;0.70;0.40;;;18.50;99.90;;;;;;5032108;28;20657;-83
2023/09/23 08:49:59;;;;;;;0.90;0.50;;;18.40;99.90;;;;;;5034159;28;20197;-83
2023/09/23 08:52:31;;;;;;;0.73;0.50;;;18.30;99.90;;;;;;5035131;28;20205;-84
2023/09/23 08:55:03;;;;;;;1.50;0.80;;;18.40;99.90;;;;;;5025508;28;20216;-84
2023/09/23 08:57:34;;;;;;;1.67;0.65;;;18.30;99.90;;;;;;5030872;28;20251;-84
2023/09/23 09:00:08;;;;;;;2.28;0.70;;;18.30;99.90;;;;;;5023742;28;20197;-84
2023/09/23 09:02:39;;;;;;;1.23;0.55;;;18.30;99.90;;;;;;5025336;28;20223;-83
2023/09/23 09:05:11;;;;;;;1.20;0.43;;;18.30;99.90;;;;;;5033626;28;20209;-83
2023/09/23 09:07:42;;;;;;;0.88;0.50;;;18.20;99.90;;;;;;5022577;28;20197;-83
2023/09/23 09:10:14;;;;;;;1.58;0.80;;;18.20;99.90;;;;;;5033743;28;20567;-81
2023/09/23 09:12:44;;;;;;;1.30;0.50;;;18.20;99.90;;;;;;5029906;28;20238;-81
2023/09/23 09:15:20;;;;;;;1.48;0.70;;;18.20;99.90;;;;;;5033326;28;20683;-82
2023/09/23 09:17:51;;;;;;;1.27;0.90;;;18.20;99.90;;;;;;5033475;28;20204;-81
2023/09/23 09:20:21;;;;;;;2.00;1.00;;;18.20;99.90;;;;;;5013634;28;20704;-82
2023/09/23 09:22:54;;;;;;;2.00;0.70;;;18.20;99.90;;;;;;5013393;28;20222;-81
2023/09/23 09:25:26;;;;;;;1.50;0.70;;;18.20;99.90;;;;;;5030590;28;20197;-81
2023/09/23 09:27:57;;;;;;;2.03;0.60;;;18.20;99.90;;;;;;5029075;28;20284;-81
2023/09/23 09:30:30;;;;;;;2.22;0.55;;;18.20;99.90;;;;;;5032925;28;20197;-82
2023/09/23 09:33:04;;;;;;;0.63;0.38;;;18.20;99.90;;;;;;5031333;28;20205;-82
2023/09/23 09:35:35;;;;;;;1.35;0.75;;;18.10;99.90;;;;;;5033147;28;20197;-82
2023/09/23 09:38:10;;;;;;;1.75;0.50;;;18.10;99.90;;;;;;5033278;28;20204;-82
2023/09/23 09:40:41;;;;;;;1.90;0.55;;;18.10;99.90;;;;;;5030371;28;20211;-81
2023/09/23 09:43:12;;;;;;;2.47;0.47;;;18.10;99.90;;;;;;5040905;28;20217;-81
2023/09/23 09:45:45;;;;;;;1.60;0.43;;;18.10;99.90;;;;;;5033386;28;20283;-82
2023/09/23 09:48:17;;;;;;;1.45;0.40;;;18.00;99.90;;;;;;5032650;28;20201;-83
2023/09/23 09:50:49;;;;;;;1.88;0.50;;;18.00;99.90;;;;;;5015096;28;20194;-82
2023/09/23 09:53:21;;;;;;;1.13;0.40;;;18.00;99.90;;;;;;5014464;28;20205;-82
2023/09/23 09:55:56;;;;;;;1.80;0.43;;;18.00;99.90;;;;;;5031598;28;20371;-80
2023/09/23 09:58:37;;;;;;;1.38;0.30;;;18.00;99.90;;;;;;5028665;28;20217;-81
2023/09/23 10:01:13;;;;;;;0.85;0.60;;;18.00;99.90;;;;;;5014060;28;20297;-82
2023/09/23 10:03:45;;;;;;;0.82;0.35;;;18.00;99.90;;;;;;5012981;28;20287;-81
2023/09/23 10:06:22;;;;;;;0.98;0.40;;;18.00;99.90;;;;;;5012484;28;20209;-81
2023/09/23 10:08:53;;;;;;;2.35;0.60;;;18.00;99.90;;;;;;5013984;28;20237;-81
2023/09/23 10:11:34;;;;;;;1.88;0.30;;;18.00;99.90;;;;;;5031019;28;20196;-82
2023/09/23 10:14:16;;;;;;;0.40;0.40;;;18.00;99.90;;;;;;5031655;28;20201;-82
2023/09/23 10:16:54;;;;;;;1.92;0.38;;;18.00;99.90;;;;;;5023171;28;20252;-78
2023/09/23 10:19:34;;;;;;;2.17;0.70;;;18.00;99.90;;;;;;5029492;28;20216;-83
2023/09/23 10:22:16;;;;;;;1.60;0.80;;;18.00;99.90;;;;;;5013628;28;20229;-83
2023/09/23 10:24:48;;;;;;;2.25;0.80;;;17.90;99.90;;;;;;5025421;28;20563;-83
2023/09/23 10:27:24;;;;;;;1.15;0.60;;;17.90;99.90;;;;;;5018619;28;20216;-83
2023/09/23 10:29:54;;;;;;;0.77;0.47;;;17.90;99.90;;;;;;5019758;28;20192;-81
2023/09/23 10:32:28;;;;;;;0.70;0.40;;;17.90;99.90;;;;;;5029195;28;20197;-82
2023/09/23 10:34:59;;;;;;;1.13;0.40;;;17.90;99.90;;;;;;5030390;28;20218;-82
2023/09/23 10:37:32;;;;;;;2.60;0.60;;;17.90;99.90;;;;;;5031685;28;20201;-81
2023/09/23 10:40:12;;;;;;;1.10;0.50;;;17.90;99.90;;;;;;5031740;28;20205;-81
2023/09/23 10:42:43;;;;;;;1.23;0.55;;;17.90;99.90;;;;;;5030538;28;20221;-82
2023/09/23 10:45:14;;;;;;;1.38;0.57;;;17.80;99.90;;;;;;5031022;28;20209;-83
2023/09/23 10:47:47;;;;;;;1.58;0.50;;;17.80;99.90;;;;;;5021546;28;20194;-82
2023/09/23 10:50:18;;;;;;;1.20;0.55;;;17.80;99.90;;;;;;5024889;28;20197;-83
2023/09/23 10:52:49;;;;;;;1.65;0.50;;;17.80;99.90;;;;;;5031973;28;20201;-82
2023/09/23 10:55:20;;;;;;;1.52;0.60;;;17.80;99.90;;;;;;5017832;28;20198;-82
2023/09/23 10:57:51;;;;;;;2.90;0.63;;;17.70;99.90;;;;;;5018435;28;20201;-83
2023/09/23 11:00:22;;;;;;;0.45;0.30;;;17.80;99.90;;;;;;5021318;28;20202;-81
2023/09/23 11:02:58;;;;;;;0.63;0.30;;;17.80;99.90;;;;;;5030159;28;20225;-81
2023/09/23 11:05:28;;;;;;;0.57;0.30;;;17.70;99.90;;;;;;5031421;28;20199;-81
2023/09/23 11:07:59;;;;;;;3.08;0.50;;;17.70;99.90;;;;;;5031039;28;20201;-80
2023/09/23 11:10:31;;;;;;;1.08;0.40;;;17.70;99.90;;;;;;5031818;28;20200;-81
2023/09/23 11:13:02;;;;;;;2.72;0.60;;;17.60;99.90;;;;;;5028839;28;20225;-81
2023/09/23 11:15:33;;;;;;;1.30;0.45;;;17.70;99.90;;;;;;5031574;28;20508;-82
2023/09/23 11:18:08;;;;;;;3.80;0.52;;;17.60;99.90;;;;;;5031547;28;20301;-80
2023/09/23 11:20:42;;;;;;;0.50;0.50;;;17.60;99.90;;;;;;5023965;28;20200;-81
2023/09/23 11:23:14;;;;;;;0.88;0.40;;;17.60;99.90;;;;;;5032632;28;20699;-81
2023/09/23 11:25:46;;;;;;;1.73;0.77;;;17.60;99.90;;;;;;5034787;28;20207;-82
2023/09/23 11:28:20;;;;;;;0.65;0.50;;;17.60;99.90;;;;;;5031239;28;20200;-81
2023/09/23 11:30:52;;;;;;;1.35;0.70;;;17.60;99.90;;;;;;5030750;28;20211;-81
2023/09/23 11:33:26;;;;;;;2.00;0.60;;;17.60;99.90;;;;;;5029432;28;20213;-82
2023/09/23 11:35:58;;;;;;;2.03;0.50;;;17.50;99.90;;;;;;5028412;28;20200;-79
2023/09/23 11:38:28;;;;;;;2.38;0.65;;;17.50;99.90;;;;;;5031784;28;20193;-81
2023/09/23 11:41:00;;;;;;;2.58;1.08;;;17.40;99.90;;;;;;5031956;28;20730;-82
2023/09/23 11:43:31;;;;;;;1.52;1.20;;;17.40;99.90;;;;;;5028314;28;20312;-79
2023/09/23 11:46:01;;;;;;;1.77;0.90;;;17.40;99.90;;;;;;5027195;28;20208;-79
2023/09/23 11:48:35;;;;;;;1.73;1.23;;;17.40;99.90;;;;;;5011894;28;20205;-81
2023/09/23 11:51:05;;;;;;;1.75;1.20;;;17.30;99.90;;;;;;5015923;28;20199;-82
2023/09/23 11:53:37;;;;;;;2.28;1.30;;;17.30;99.90;;;;;;5031105;28;20283;-82
2023/09/23 11:56:08;;;;;;;2.03;1.05;;;17.30;99.90;;;;;;5025655;28;20191;-81
2023/09/23 11:58:41;;;;;;;2.78;1.42;;;17.30;99.90;;;;;;5032274;28;20202;-82
2023/09/23 12:01:12;;;;;;;3.22;1.10;;;17.20;99.90;;;;;;5035569;28;20232;-83
2023/09/23 12:03:45;;;;;;;3.00;0.80;;;17.20;99.90;;;;;;5025759;28;20220;-80
2023/09/23 12:06:17;;;;;;;1.83;0.90;;;17.20;99.90;;;;;;5034082;28;20216;-82
2023/09/23 12:08:47;;;;;;;2.45;1.17;;;17.10;99.90;;;;;;5033671;28;20205;-83
2023/09/23 12:11:21;;;;;;;2.30;1.00;;;17.10;99.90;;;;;;5025775;28;20288;-81
2023/09/23 12:13:53;;;;;;;2.05;1.20;;;17.10;99.90;;;;;;5034443;28;20589;-80
2023/09/23 12:16:24;;;;;;;1.00;0.90;;;17.10;99.90;;;;;;5058545;28;20208;-80
2023/09/23 12:18:58;;;;;;;2.42;1.17;;;17.00;99.90;;;;;;5041555;28;20204;-81
2023/09/23 12:21:30;;;;;;;2.13;1.10;;;17.00;99.90;;;;;;5021962;28;20193;-80
2023/09/23 12:24:03;;;;;;;3.50;1.38;;;17.00;99.90;;;;;;5020948;28;20206;-82
2023/09/23 12:26:35;;;;;;;4.40;1.50;;;17.00;99.90;;;;;;5019012;28;20719;-79
2023/09/23 12:29:06;;;;;;;2.72;1.00;;;17.00;99.90;;;;;;5036239;28;20615;-80
2023/09/23 12:31:37;;;;;;;2.47;0.93;;;16.90;99.90;;;;;;5034740;28;20204;-82
2023/09/23 12:34:10;;;;;;;1.45;0.93;;;17.00;99.90;;;;;;5046606;28;20224;-83
2023/09/23 12:36:41;;;;;;;2.55;1.27;;;17.00;99.90;;;;;;5041382;28;20288;-83
2023/09/23 12:39:15;;;;;;;3.10;1.10;;;16.90;99.90;;;;;;5040029;28;20212;-83
2023/09/23 12:41:46;;;;;;;2.67;1.02;;;16.90;99.90;;;;;;5024605;28;20228;-84
2023/09/23 12:44:19;;;;;;;2.80;1.10;;;16.80;99.90;;;;;;5036300;28;20220;-82
2023/09/23 12:46:51;;;;;;;3.00;1.50;;;16.80;99.90;;;;;;5036618;28;20638;-81
2023/09/23 12:49:23;;;;;;;3.05;1.50;;;16.80;99.90;;;;;;5036276;28;20557;-81
2023/09/23 12:51:56;;;;;;;5.13;1.40;;;16.80;99.90;;;;;;5016467;28;20207;-79
2023/09/23 12:54:27;;;;;;;2.05;1.52;;;16.70;99.90;;;;;;5017307;28;20277;-80
2023/09/23 12:56:58;;;;;;;1.73;1.33;;;16.70;99.90;;;;;;5022300;28;20262;-81
2023/09/23 12:59:29;;;;;;;2.45;1.33;;;16.70;99.90;;;;;;5025374;28;20205;-82
2023/09/23 13:02:00;;;;;;;3.20;1.48;;;16.60;99.90;;;;;;5016453;28;20617;-80
2023/09/23 13:04:33;;;;;;;2.83;1.33;;;16.50;99.90;;;;;;5016312;28;20222;-82
2023/09/23 13:07:04;;;;;;;2.88;1.40;;;16.50;99.90;;;;;;5034249;28;20205;-82
2023/09/23 13:09:35;;;;;;;2.35;1.33;;;16.40;99.90;;;;;;5017473;28;20542;-82
2023/09/23 13:12:06;;;;;;;2.70;1.55;;;16.40;99.90;;;;;;5021247;28;20248;-82
2023/09/23 13:14:37;;;;;;;3.47;1.58;;;16.40;99.90;;;;;;5032906;28;20204;-81